Time;durP1;ratioP1;P1;durP2;ratioP2;P2;SDS_P1;SDS_P2;PMS_P1;PMS_P2;Temp;Humidity;BMP_temperature;BMP_pressure;BME280_temperature;BME280_humidity;BME280_pressure;Samples;Min_cycle;Max_cycle;Signal;HPM_P1;HPM_P2
2024/03/03 00:02:00;;;;;;;46.83;12.50;;;;;;;;;;4984155;28;20817;-79
2024/03/03 00:04:26;;;;;;;51.45;12.35;;;;;;;;;;5004351;28;20029;-79
2024/03/03 00:06:52;;;;;;;51.10;12.25;;;;;;;;;;4984315;28;20046;-79
2024/03/03 00:09:20;;;;;;;48.95;12.43;;;;;;;;;;5002840;28;20115;-80
2024/03/03 00:11:46;;;;;;;48.17;12.00;;;;;;;;;;4985558;28;20045;-80
2024/03/03 00:14:12;;;;;;;53.88;12.93;;;;;;;;;;4987312;28;20613;-80
2024/03/03 00:16:38;;;;;;;;;;;;;;;;;;5006494;28;20041;-80
2024/03/03 00:19:04;;;;;;;50.92;13.13;;;;;;;;;;4981382;28;19960;-79
2024/03/03 00:21:30;;;;;;;42.50;12.70;;;;;;;;;;4986839;28;20991;-80
2024/03/03 00:23:57;;;;;;;47.65;10.13;;;;;;;;;;5001763;28;20025;-79
2024/03/03 00:26:23;;;;;;;51.30;11.43;;;;;;;;;;4979839;28;20875;-81
2024/03/03 00:28:49;;;;;;;52.70;12.65;;;;;;;;;;4986341;28;20033;-81
2024/03/03 00:31:18;;;;;;;46.80;12.18;;;;;;;;;;5005302;28;20030;-81
2024/03/03 00:33:44;;;;;;;43.47;11.35;;;;;;;;;;4988460;28;20041;-80
2024/03/03 00:36:11;;;;;;;45.28;11.27;;;;;;;;;;5005698;28;20029;-79
2024/03/03 00:38:37;;;;;;;;;;;;;;;;;;4986426;28;20048;-80
2024/03/03 00:41:04;;;;;;;44.78;12.55;;;;;;;;;;4988512;28;20293;-80
2024/03/03 00:43:31;;;;;;;43.85;12.25;;;;;;;;;;5006219;28;20024;-80
2024/03/03 00:45:57;;;;;;;;;;;;;;;;;;5001702;28;20033;-80
2024/03/03 00:48:23;;;;;;;48.78;11.57;;;;;;;;;;5007730;28;19917;-80
2024/03/03 00:50:49;;;;;;;51.28;12.15;;;;;;;;;;4988282;28;20029;-80
2024/03/03 00:53:15;;;;;;;43.42;10.90;;;;;;;;;;4990460;28;20033;-79
2024/03/03 00:55:46;;;;;;;42.35;11.32;;;;;;;;;;4995073;28;20061;-80
2024/03/03 00:58:13;;;;;;;48.33;12.20;;;;;;;;;;4986334;28;20049;-80
2024/03/03 01:00:39;;;;;;;58.45;12.73;;;;;;;;;;5003218;28;20146;-79
2024/03/03 01:03:06;;;;;;;54.17;12.82;;;;;;;;;;5003429;28;20026;-80
2024/03/03 01:05:32;;;;;;;54.10;12.02;;;;;;;;;;4987988;28;20072;-81
2024/03/03 01:07:58;;;;;;;53.97;12.77;;;;;;;;;;5003165;28;20171;-82
2024/03/03 01:10:24;;;;;;;55.65;13.07;;;;;;;;;;4988640;28;20329;-81
2024/03/03 01:12:50;;;;;;;51.35;11.40;;;;;;;;;;4987486;28;20042;-82
2024/03/03 01:15:17;;;;;;;49.97;11.77;;;;;;;;;;4985492;28;20117;-80
2024/03/03 01:17:42;;;;;;;;;;;;;;;;;;5000373;28;20103;-81
2024/03/03 01:20:09;;;;;;;44.10;10.82;;;;;;;;;;4987153;28;20720;-81
2024/03/03 01:22:35;;;;;;;;;;;;;;;;;;5013803;28;20030;-79
2024/03/03 01:25:01;;;;;;;22.13;5.10;;;;;;;;;;4995504;28;19940;-79
2024/03/03 01:27:27;;;;;;;19.50;4.93;;;;;;;;;;5007784;28;20554;-80
2024/03/03 01:29:53;;;;;;;16.92;4.20;;;;;;;;;;4992211;28;20030;-80
2024/03/03 01:32:22;;;;;;;16.67;3.95;;;;;;;;;;4989963;28;20037;-81
2024/03/03 01:34:48;;;;;;;16.42;3.97;;;;;;;;;;4993467;28;20402;-80
2024/03/03 01:37:15;;;;;;;15.65;3.97;;;;;;;;;;4997346;28;20038;-82
2024/03/03 01:39:42;;;;;;;15.35;4.15;;;;;;;;;;4987907;28;20018;-81
2024/03/03 01:42:08;;;;;;;14.10;3.80;;;;;;;;;;4987901;28;20541;-82
2024/03/03 01:44:34;;;;;;;13.68;3.42;;;;;;;;;;5006498;28;20029;-82
2024/03/03 01:47:00;;;;;;;;;;;;;;;;;;5000722;28;20037;-82
2024/03/03 01:49:27;;;;;;;17.10;4.00;;;;;;;;;;4990204;28;19920;-81
2024/03/03 01:51:53;;;;;;;12.95;3.78;;;;;;;;;;4988927;28;20045;-81
2024/03/03 01:54:20;;;;;;;15.52;3.33;;;;;;;;;;4986561;28;20216;-82
2024/03/03 01:56:47;;;;;;;12.98;2.90;;;;;;;;;;4988094;28;20536;-80
2024/03/03 01:59:13;;;;;;;13.45;2.85;;;;;;;;;;4983054;28;20132;-80
2024/03/03 02:01:40;;;;;;;11.85;3.10;;;;;;;;;;4986911;28;20176;-81
2024/03/03 02:04:08;;;;;;;15.73;3.40;;;;;;;;;;4984200;28;20033;-80
2024/03/03 02:06:34;;;;;;;13.75;3.67;;;;;;;;;;5006074;28;20041;-80
2024/03/03 02:09:01;;;;;;;11.38;3.60;;;;;;;;;;5003975;28;20045;-80
2024/03/03 02:11:30;;;;;;;13.57;2.92;;;;;;;;;;4998904;28;20045;-80
2024/03/03 02:13:56;;;;;;;16.27;3.67;;;;;;;;;;4987480;28;20156;-80
2024/03/03 02:16:22;;;;;;;13.95;3.38;;;;;;;;;;4985045;28;20064;-80
2024/03/03 02:18:48;;;;;;;14.07;3.60;;;;;;;;;;4986230;28;20044;-79
2024/03/03 02:21:15;;;;;;;15.10;3.45;;;;;;;;;;4980387;28;20036;-80
2024/03/03 02:23:41;;;;;;;15.50;3.45;;;;;;;;;;5002541;28;20040;-80
2024/03/03 02:26:07;;;;;;;15.38;3.25;;;;;;;;;;4986838;28;20029;-79
2024/03/03 02:28:33;;;;;;;15.30;3.33;;;;;;;;;;4980541;28;20513;-80
2024/03/03 02:31:00;;;;;;;14.75;3.67;;;;;;;;;;4987921;28;20044;-80
2024/03/03 02:33:26;;;;;;;13.20;3.50;;;;;;;;;;4987219;28;20030;-80
2024/03/03 02:35:52;;;;;;;15.70;3.80;;;;;;;;;;4988451;28;20600;-80
2024/03/03 02:38:18;;;;;;;17.23;4.00;;;;;;;;;;4986854;28;20037;-80
2024/03/03 02:40:44;;;;;;;21.92;4.13;;;;;;;;;;4987655;28;20029;-79
2024/03/03 02:43:10;;;;;;;17.42;3.47;;;;;;;;;;4981704;28;20073;-80
2024/03/03 02:45:37;;;;;;;22.90;4.53;;;;;;;;;;5001912;28;20897;-81
2024/03/03 02:48:03;;;;;;;22.45;4.72;;;;;;;;;;4986891;28;20033;-82
2024/03/03 02:50:29;;;;;;;;;;;;;;;;;;4988186;28;20063;-81
2024/03/03 02:52:56;;;;;;;21.08;3.72;;;;;;;;;;4979905;28;19920;-81
2024/03/03 02:55:22;;;;;;;16.65;3.30;;;;;;;;;;4983322;28;20507;-80
2024/03/03 02:57:48;;;;;;;16.23;3.28;;;;;;;;;;4985117;28;20859;-80
2024/03/03 03:00:15;;;;;;;16.88;3.22;;;;;;;;;;5005058;28;20026;-79
2024/03/03 03:02:42;;;;;;;13.85;2.70;;;;;;;;;;4985354;28;20040;-79
2024/03/03 03:05:08;;;;;;;;;;;;;;;;;;4985252;28;20145;-79
2024/03/03 03:07:34;;;;;;;13.98;2.80;;;;;;;;;;5003624;28;19928;-79
2024/03/03 03:10:00;;;;;;;12.70;2.47;;;;;;;;;;4985130;28;20658;-80
2024/03/03 03:12:26;;;;;;;10.95;2.35;;;;;;;;;;4990369;28;20124;-79
2024/03/03 03:14:53;;;;;;;13.50;2.45;;;;;;;;;;4982503;28;20149;-80
2024/03/03 03:17:19;;;;;;;14.00;2.72;;;;;;;;;;4986935;28;20026;-81
2024/03/03 03:19:45;;;;;;;15.30;3.13;;;;;;;;;;5005433;28;20032;-80
2024/03/03 03:22:12;;;;;;;14.10;3.00;;;;;;;;;;4979651;28;20115;-79
2024/03/03 03:24:38;;;;;;;;;;;;;;;;;;4998260;28;20187;-79
2024/03/03 03:27:05;;;;;;;14.45;3.33;;;;;;;;;;4986147;28;20452;-80
2024/03/03 03:29:31;;;;;;;13.02;2.70;;;;;;;;;;4985808;28;20279;-79
2024/03/03 03:31:57;;;;;;;16.02;3.15;;;;;;;;;;4995886;28;20045;-80
2024/03/03 03:34:23;;;;;;;16.48;3.25;;;;;;;;;;5002633;28;20638;-80
2024/03/03 03:36:49;;;;;;;19.38;3.65;;;;;;;;;;4984038;28;20034;-80
2024/03/03 03:39:15;;;;;;;16.63;3.33;;;;;;;;;;4977986;28;20156;-80
2024/03/03 03:41:47;;;;;;;15.20;3.63;;;;;;;;;;4997099;28;20071;-79
2024/03/03 03:44:14;;;;;;;15.93;3.08;;;;;;;;;;4986145;28;20030;-79
2024/03/03 03:46:40;;;;;;;14.95;3.10;;;;;;;;;;5000300;28;20699;-79
2024/03/03 03:49:08;;;;;;;17.55;3.33;;;;;;;;;;4983113;28;20032;-80
2024/03/03 03:51:34;;;;;;;17.58;3.95;;;;;;;;;;5006997;28;20033;-80
2024/03/03 03:54:00;;;;;;;17.60;3.60;;;;;;;;;;4984393;28;20029;-79
2024/03/03 03:56:26;;;;;;;17.63;3.70;;;;;;;;;;4984278;28;20060;-79
2024/03/03 03:58:52;;;;;;;14.95;3.03;;;;;;;;;;4981715;28;20091;-79
2024/03/03 04:01:19;;;;;;;18.08;3.80;;;;;;;;;;4984010;28;20026;-80
2024/03/03 04:03:46;;;;;;;16.50;3.65;;;;;;;;;;4988372;28;20111;-80
2024/03/03 04:06:12;;;;;;;;;;;;;;;;;;4985357;28;21605;-79
2024/03/03 04:08:38;;;;;;;17.70;3.10;;;;;;;;;;5007946;28;20164;-79
2024/03/03 04:11:04;;;;;;;16.73;3.60;;;;;;;;;;4983867;28;20790;-79
2024/03/03 04:13:30;;;;;;;18.20;3.85;;;;;;;;;;4986098;28;20361;-79
2024/03/03 04:15:56;;;;;;;17.90;3.25;;;;;;;;;;4999833;28;20038;-80
2024/03/03 04:18:22;;;;;;;;;;;;;;;;;;4986629;28;20056;-80
2024/03/03 04:20:48;;;;;;;15.38;3.10;;;;;;;;;;4986880;28;20027;-80
2024/03/03 04:23:17;;;;;;;13.73;2.85;;;;;;;;;;5005781;28;20136;-80
2024/03/03 04:25:43;;;;;;;14.55;2.95;;;;;;;;;;5000910;28;20026;-82
2024/03/03 04:28:10;;;;;;;13.75;2.78;;;;;;;;;;4982576;28;20033;-83
2024/03/03 04:30:36;;;;;;;13.32;2.63;;;;;;;;;;4978716;28;20026;-82
2024/03/03 04:33:02;;;;;;;;;;;;;;;;;;4997436;28;20475;-83
2024/03/03 04:35:28;;;;;;;18.13;3.00;;;;;;;;;;4980511;28;20028;-80
2024/03/03 04:37:55;;;;;;;14.60;3.20;;;;;;;;;;4999248;28;20121;-81
2024/03/03 04:40:21;;;;;;;13.65;2.60;;;;;;;;;;4982721;28;20041;-82
2024/03/03 04:42:47;;;;;;;17.88;3.25;;;;;;;;;;4982749;28;20033;-79
2024/03/03 04:45:14;;;;;;;16.35;3.05;;;;;;;;;;4981107;28;20037;-80
2024/03/03 04:47:41;;;;;;;12.40;2.58;;;;;;;;;;4983280;28;20038;-81
2024/03/03 04:50:07;;;;;;;;;;;;;;;;;;5001744;28;20472;-81
2024/03/03 04:52:34;;;;;;;11.43;2.35;;;;;;;;;;4990801;28;20476;-81
2024/03/03 04:55:00;;;;;;;10.65;1.85;;;;;;;;;;4987552;28;20037;-78
2024/03/03 04:57:26;;;;;;;8.88;1.83;;;;;;;;;;5002603;28;20030;-78
2024/03/03 04:59:52;;;;;;;7.88;1.50;;;;;;;;;;4978790;28;20036;-78
2024/03/03 05:02:20;;;;;;;6.28;1.27;;;;;;;;;;4998168;28;20036;-78
2024/03/03 05:04:46;;;;;;;7.85;1.30;;;;;;;;;;4989063;28;20026;-79
2024/03/03 05:07:12;;;;;;;8.45;1.42;;;;;;;;;;4980059;28;20056;-79
2024/03/03 05:09:38;;;;;;;;;;;;;;;;;;4986892;28;20361;-78
2024/03/03 05:12:05;;;;;;;5.57;1.20;;;;;;;;;;4986450;28;20538;-80
2024/03/03 05:14:31;;;;;;;;;;;;;;;;;;4981051;28;20037;-79
2024/03/03 05:16:57;;;;;;;7.70;1.50;;;;;;;;;;4984179;28;19941;-79
2024/03/03 05:19:23;;;;;;;10.55;1.60;;;;;;;;;;4986195;28;20076;-80
2024/03/03 05:21:49;;;;;;;6.78;1.35;;;;;;;;;;4985289;28;20596;-79
2024/03/03 05:24:16;;;;;;;7.07;1.30;;;;;;;;;;4985177;28;20037;-79
2024/03/03 05:26:42;;;;;;;;;;;;;;;;;;4991444;28;20049;-80
2024/03/03 05:29:08;;;;;;;8.05;1.48;;;;;;;;;;4988870;28;19947;-80
2024/03/03 05:31:39;;;;;;;9.52;1.70;;;;;;;;;;4985788;28;20033;-80
2024/03/03 05:34:05;;;;;;;5.78;1.17;;;;;;;;;;4982577;28;20045;-79
2024/03/03 05:36:32;;;;;;;7.35;1.30;;;;;;;;;;4984538;28;20032;-80
2024/03/03 05:38:59;;;;;;;5.65;1.10;;;;;;;;;;4982312;28;20155;-79
2024/03/03 05:41:26;;;;;;;6.95;1.23;;;;;;;;;;4986498;28;20049;-80
2024/03/03 05:43:52;;;;;;;4.93;1.17;;;;;;;;;;5003084;28;20096;-80
2024/03/03 05:46:18;;;;;;;7.18;1.17;;;;;;;;;;5002075;28;20041;-81
2024/03/03 05:48:44;;;;;;;7.45;1.27;;;;;;;;;;4987118;28;20124;-81
2024/03/03 05:51:10;;;;;;;5.70;1.10;;;;;;;;;;4983156;28;20138;-80
2024/03/03 05:53:40;;;;;;;9.25;1.52;;;;;;;;;;4987511;28;20033;-79
2024/03/03 05:56:06;;;;;;;8.85;1.35;;;;;;;;;;4992203;28;20026;-88
2024/03/03 05:58:32;;;;;;;5.78;1.10;;;;;;;;;;5015188;28;20021;-89
2024/03/03 06:00:59;;;;;;;8.43;1.60;;;;;;;;;;5013034;28;20024;-88
2024/03/03 06:03:25;;;;;;;6.95;1.25;;;;;;;;;;5012726;28;20036;-88
2024/03/03 06:05:51;;;;;;;9.93;1.73;;;;;;;;;;5017420;28;20365;-88
2024/03/03 06:08:17;;;;;;;10.10;1.90;;;;;;;;;;5000965;28;20200;-89
2024/03/03 06:10:44;;;;;;;9.98;1.70;;;;;;;;;;4993960;28;20036;-88
2024/03/03 06:13:10;;;;;;;8.70;1.58;;;;;;;;;;4990171;28;20037;-88
2024/03/03 06:15:36;;;;;;;8.55;1.58;;;;;;;;;;4996295;28;20029;-88
2024/03/03 06:18:04;;;;;;;7.13;1.45;;;;;;;;;;4994606;28;20148;-90
2024/03/03 06:20:31;;;;;;;8.20;1.33;;;;;;;;;;4997739;28;20094;-90
2024/03/03 06:22:57;;;;;;;8.93;1.65;;;;;;;;;;4989310;28;20041;-89
2024/03/03 06:25:23;;;;;;;8.93;1.33;;;;;;;;;;5009533;28;20040;-87
2024/03/03 06:27:49;;;;;;;9.02;1.58;;;;;;;;;;5010946;28;20029;-89
2024/03/03 06:30:15;;;;;;;8.63;1.98;;;;;;;;;;5011582;28;20032;-90
2024/03/03 06:32:42;;;;;;;11.95;1.80;;;;;;;;;;5016940;28;20067;-89
2024/03/03 06:35:11;;;;;;;7.43;1.40;;;;;;;;;;5012992;28;20034;-89
2024/03/03 06:37:38;;;;;;;8.98;1.40;;;;;;;;;;4999501;28;20042;-89
2024/03/03 06:40:05;;;;;;;8.23;1.80;;;;;;;;;;4997579;28;20080;-89
2024/03/03 06:42:34;;;;;;;7.57;1.48;;;;;;;;;;5014237;28;20034;-88
2024/03/03 06:45:01;;;;;;;8.80;1.70;;;;;;;;;;5009129;28;20029;-89
2024/03/03 06:47:32;;;;;;;5.75;1.33;;;;;;;;;;4993312;28;20025;-88
2024/03/03 06:49:59;;;;;;;10.32;1.90;;;;;;;;;;5005914;28;20068;-88
2024/03/03 06:52:25;;;;;;;9.27;1.63;;;;;;;;;;4992243;28;20068;-88
2024/03/03 06:54:51;;;;;;;9.52;1.92;;;;;;;;;;5013395;28;20052;-88
2024/03/03 06:57:18;;;;;;;7.88;1.65;;;;;;;;;;5001832;28;20029;-88
2024/03/03 06:59:44;;;;;;;7.97;1.58;;;;;;;;;;4996317;28;20057;-87
2024/03/03 07:02:10;;;;;;;11.90;1.30;;;;;;;;;;5012021;28;20029;-88
2024/03/03 07:04:36;;;;;;;7.15;1.27;;;;;;;;;;4995561;28;20104;-87
2024/03/03 07:07:02;;;;;;;9.57;1.40;;;;;;;;;;4989896;28;20128;-86
2024/03/03 07:09:29;;;;;;;5.95;1.50;;;;;;;;;;5004600;28;20034;-86
2024/03/03 07:11:56;;;;;;;8.75;1.40;;;;;;;;;;4991909;28;20722;-84
2024/03/03 07:14:23;;;;;;;8.80;1.60;;;;;;;;;;4992456;28;20033;-87
2024/03/03 07:16:50;;;;;;;9.35;1.50;;;;;;;;;;5006950;28;20108;-85
2024/03/03 07:19:19;;;;;;;7.20;1.48;;;;;;;;;;4993912;28;20041;-87
2024/03/03 07:21:49;;;;;;;8.15;1.50;;;;;;;;;;4996062;28;20022;-86
2024/03/03 07:24:16;;;;;;;7.93;1.70;;;;;;;;;;4988075;28;20064;-87
2024/03/03 07:26:42;;;;;;;9.43;1.80;;;;;;;;;;4997602;28;20042;-86
2024/03/03 07:29:08;;;;;;;8.40;1.65;;;;;;;;;;4991010;28;20058;-86
2024/03/03 07:31:44;;;;;;;7.13;1.42;;;;;;;;;;5013968;28;20033;-87
2024/03/03 07:34:10;;;;;;;11.50;1.65;;;;;;;;;;5010944;28;20057;-87
2024/03/03 07:36:36;;;;;;;9.00;1.77;;;;;;;;;;5011368;28;20026;-87
2024/03/03 07:39:02;;;;;;;10.88;2.03;;;;;;;;;;4997192;28;20045;-86
2024/03/03 07:41:28;;;;;;;7.78;1.70;;;;;;;;;;4989036;28;20030;-87
2024/03/03 07:43:54;;;;;;;8.77;1.70;;;;;;;;;;4999370;28;20033;-89
2024/03/03 07:46:21;;;;;;;9.65;1.60;;;;;;;;;;5016942;28;20029;-88
2024/03/03 07:48:47;;;;;;;9.45;1.30;;;;;;;;;;5022767;28;20037;-87
2024/03/03 07:51:13;;;;;;;5.75;1.20;;;;;;;;;;4998436;28;20038;-88
2024/03/03 07:53:39;;;;;;;9.18;1.60;;;;;;;;;;5015642;28;20034;-88
2024/03/03 07:56:06;;;;;;;7.75;1.75;;;;;;;;;;5006638;28;20038;-88
2024/03/03 07:58:36;;;;;;;9.40;1.75;;;;;;;;;;4997600;28;20038;-85
2024/03/03 08:01:04;;;;;;;9.55;1.60;;;;;;;;;;4993007;28;20045;-84
2024/03/03 08:03:30;;;;;;;9.07;1.95;;;;;;;;;;5003699;28;20083;-84
2024/03/03 08:05:56;;;;;;;10.75;2.05;;;;;;;;;;4991634;28;20046;-85
2024/03/03 08:08:22;;;;;;;8.85;1.77;;;;;;;;;;5000142;28;20390;-84
2024/03/03 08:10:49;;;;;;;6.85;1.30;;;;;;;;;;4998468;28;20107;-86
2024/03/03 08:13:15;;;;;;;8.45;1.40;;;;;;;;;;4994900;28;20100;-87
2024/03/03 08:15:41;;;;;;;6.30;1.42;;;;;;;;;;5001725;28;20112;-85
2024/03/03 08:18:07;;;;;;;7.00;1.27;;;;;;;;;;4986525;28;20065;-85
2024/03/03 08:20:33;;;;;;;9.85;1.60;;;;;;;;;;4997113;28;20114;-86
2024/03/03 08:22:59;;;;;;;8.25;1.63;;;;;;;;;;5008603;28;20088;-85
2024/03/03 08:25:25;;;;;;;9.32;1.80;;;;;;;;;;5006410;28;20109;-86
2024/03/03 08:27:52;;;;;;;8.63;1.50;;;;;;;;;;4991588;28;20053;-85
2024/03/03 08:30:18;;;;;;;9.48;1.80;;;;;;;;;;5008859;28;20107;-86
2024/03/03 08:32:44;;;;;;;9.15;1.52;;;;;;;;;;4989584;28;20041;-86
2024/03/03 08:35:11;;;;;;;9.85;1.40;;;;;;;;;;4986946;28;20022;-86
2024/03/03 08:37:38;;;;;;;8.43;1.80;;;;;;;;;;5006774;28;20585;-85
2024/03/03 08:40:04;;;;;;;6.78;1.65;;;;;;;;;;4992834;28;20040;-87
2024/03/03 08:42:31;;;;;;;8.38;1.60;;;;;;;;;;4995265;28;20029;-86
2024/03/03 08:44:57;;;;;;;7.28;1.40;;;;;;;;;;4994722;28;20116;-87
2024/03/03 08:47:23;;;;;;;9.48;1.77;;;;;;;;;;4994678;28;20355;-86
2024/03/03 08:49:49;;;;;;;10.70;1.83;;;;;;;;;;4997331;28;20045;-85
2024/03/03 08:52:15;;;;;;;9.07;1.40;;;;;;;;;;5011505;28;20026;-86
2024/03/03 08:54:42;;;;;;;9.55;2.10;;;;;;;;;;4996302;28;20038;-86
2024/03/03 08:57:08;;;;;;;9.23;2.03;;;;;;;;;;5012817;28;20030;-85
2024/03/03 08:59:34;;;;;;;13.48;2.53;;;;;;;;;;4996724;28;20364;-85
2024/03/03 09:02:01;;;;;;;14.60;2.50;;;;;;;;;;4994823;28;20029;-84
2024/03/03 09:04:27;;;;;;;11.65;2.65;;;;;;;;;;4991089;28;20104;-86
2024/03/03 09:06:53;;;;;;;13.90;2.78;;;;;;;;;;4992042;28;20916;-86
2024/03/03 09:09:19;;;;;;;12.48;2.95;;;;;;;;;;4995781;28;20030;-85
2024/03/03 09:11:47;;;;;;;10.35;2.30;;;;;;;;;;5015978;28;20030;-86
2024/03/03 09:14:14;;;;;;;12.35;2.53;;;;;;;;;;4994524;28;20038;-85
2024/03/03 09:16:40;;;;;;;13.82;2.80;;;;;;;;;;4994562;28;20168;-84
2024/03/03 09:19:06;;;;;;;;;;;;;;;;;;5010737;28;20031;-84
2024/03/03 09:21:34;;;;;;;13.27;2.72;;;;;;;;;;4998364;28;20332;-86
2024/03/03 09:24:00;;;;;;;9.45;2.30;;;;;;;;;;4997244;28;20094;-85
2024/03/03 09:26:27;;;;;;;11.20;2.65;;;;;;;;;;4994633;28;20061;-85
2024/03/03 09:28:53;;;;;;;9.88;2.30;;;;;;;;;;4993816;28;20026;-85
2024/03/03 09:31:19;;;;;;;12.35;2.88;;;;;;;;;;5010012;28;20899;-85
2024/03/03 09:33:45;;;;;;;10.95;1.85;;;;;;;;;;4998379;28;20042;-86
2024/03/03 09:36:11;;;;;;;9.63;1.80;;;;;;;;;;4989097;28;21920;-85
2024/03/03 09:38:37;;;;;;;8.10;1.75;;;;;;;;;;5011665;28;20041;-88
2024/03/03 09:41:04;;;;;;;8.25;2.03;;;;;;;;;;4992481;28;20026;-82
2024/03/03 09:43:30;;;;;;;;;;;;;;;;;;4997999;28;20037;-87
2024/03/03 09:45:56;;;;;;;10.73;2.40;;;;;;;;;;4997728;28;20396;-88
2024/03/03 09:48:23;;;;;;;8.57;2.08;;;;;;;;;;4997546;28;20054;-86
2024/03/03 09:50:53;;;;;;;8.75;1.95;;;;;;;;;;4997334;28;20037;-87
2024/03/03 09:53:20;;;;;;;10.30;2.20;;;;;;;;;;5011621;28;20100;-87
2024/03/03 09:55:47;;;;;;;11.10;1.95;;;;;;;;;;4997698;28;20037;-86
2024/03/03 09:58:14;;;;;;;8.02;1.88;;;;;;;;;;5008240;28;20038;-87
2024/03/03 10:00:40;;;;;;;;;;;;;;;;;;4993937;28;20044;-88
2024/03/03 10:03:07;;;;;;;10.07;1.98;;;;;;;;;;4994999;28;19963;-88
2024/03/03 10:05:36;;;;;;;9.57;2.10;;;;;;;;;;5009175;28;20114;-88
2024/03/03 10:08:03;;;;;;;8.85;1.80;;;;;;;;;;5001228;28;20033;-88
2024/03/03 10:10:35;;;;;;;12.63;5.22;;;;;;;;;;5012588;28;20049;-87
2024/03/03 10:13:05;;;;;;;9.95;3.20;;;;;;;;;;4991557;28;20037;-86
2024/03/03 10:15:32;;;;;;;16.52;9.00;;;;;;;;;;5007227;28;20045;-85
2024/03/03 10:18:01;;;;;;;19.30;10.30;;;;;;;;;;5006274;28;20122;-84
2024/03/03 10:20:29;;;;;;;13.02;4.20;;;;;;;;;;4984952;28;20089;-86
2024/03/03 10:22:55;;;;;;;11.25;3.13;;;;;;;;;;4984519;28;20030;-85
2024/03/03 10:25:23;;;;;;;;;;;;;;;;;;4993273;28;20044;-85
2024/03/03 10:27:49;;;;;;;10.55;2.70;;;;;;;;;;5002827;28;20389;-85
2024/03/03 10:30:22;;;;;;;10.07;2.80;;;;;;;;;;4990574;28;20034;-85
2024/03/03 10:32:49;;;;;;;11.98;3.45;;;;;;;;;;5007133;28;20271;-85
2024/03/03 10:35:16;;;;;;;9.80;2.60;;;;;;;;;;4991358;28;20044;-85
2024/03/03 10:37:48;;;;;;;9.02;2.47;;;;;;;;;;4999200;28;20064;-84
2024/03/03 10:40:14;;;;;;;12.00;2.88;;;;;;;;;;4997163;28;20068;-85
2024/03/03 10:42:41;;;;;;;10.38;2.85;;;;;;;;;;4996420;28;20028;-85
2024/03/03 10:45:08;;;;;;;11.13;2.40;;;;;;;;;;5006701;28;20024;-83
2024/03/03 10:47:34;;;;;;;9.85;2.58;;;;;;;;;;4985788;28;20612;-83
2024/03/03 10:50:00;;;;;;;10.05;2.20;;;;;;;;;;4985072;28;20029;-86
2024/03/03 10:52:26;;;;;;;9.23;2.20;;;;;;;;;;5009770;28;20132;-87
2024/03/03 10:54:53;;;;;;;8.88;2.20;;;;;;;;;;5003984;28;20038;-85
2024/03/03 10:57:20;;;;;;;10.88;2.05;;;;;;;;;;5012160;28;20037;-89
2024/03/03 10:59:46;;;;;;;10.10;3.72;;;;;;;;;;5009282;28;20125;-92
2024/03/03 11:02:13;;;;;;;;;;;;;;;;;;4991762;28;20041;-87
2024/03/03 11:04:41;;;;;;;7.68;1.38;;;;;;;;;;5009600;28;20457;-86
2024/03/03 11:07:09;;;;;;;8.15;1.60;;;;;;;;;;4988441;28;20065;-89
2024/03/03 11:09:36;;;;;;;10.18;1.77;;;;;;;;;;4994642;28;20072;-87
2024/03/03 11:12:05;;;;;;;7.10;1.60;;;;;;;;;;5006958;28;20075;-90
2024/03/03 11:14:53;;;;;;;6.82;1.73;;;;;;;;;;4989934;28;20612;-88
2024/03/03 11:17:20;;;;;;;9.38;2.47;;;;;;;;;;4988799;28;20048;-91
2024/03/03 11:19:47;;;;;;;9.20;2.30;;;;;;;;;;5001172;28;20029;-87
2024/03/03 11:22:23;;;;;;;8.25;2.13;;;;;;;;;;4967302;28;20034;-88
2024/03/03 11:24:59;;;;;;;9.32;2.30;;;;;;;;;;4957269;28;20152;-88
2024/03/03 11:27:26;;;;;;;10.07;2.20;;;;;;;;;;4967766;28;20068;-88
2024/03/03 11:29:54;;;;;;;13.02;4.72;;;;;;;;;;4950175;28;20037;-87
2024/03/03 11:32:21;;;;;;;24.08;17.38;;;;;;;;;;4976994;28;20039;-88
2024/03/03 11:34:48;;;;;;;12.50;4.07;;;;;;;;;;4958557;28;20026;-87
2024/03/03 11:37:14;;;;;;;37.20;30.60;;;;;;;;;;4949133;28;20038;-89
2024/03/03 11:39:56;;;;;;;18.02;8.27;;;;;;;;;;4941127;28;20089;-87
2024/03/03 11:42:28;;;;;;;11.38;4.38;;;;;;;;;;4960032;28;20064;-86
2024/03/03 11:44:54;;;;;;;11.32;5.20;;;;;;;;;;4944496;28;20037;-89
2024/03/03 11:47:20;;;;;;;;;;;;;;;;;;4927721;28;20045;-86
2024/03/03 11:49:46;;;;;;;15.20;8.43;;;;;;;;;;4950008;28;19924;-89
2024/03/03 11:52:32;;;;;;;17.60;10.30;;;;;;;;;;4934202;28;20131;-87
2024/03/03 11:54:59;;;;;;;20.17;12.30;;;;;;;;;;4939404;28;20065;-88
2024/03/03 11:57:31;;;;;;;13.32;4.10;;;;;;;;;;4946539;28;20057;-89
2024/03/03 12:00:09;;;;;;;10.98;2.72;;;;;;;;;;4955440;28;20076;-89
2024/03/03 12:02:38;;;;;;;12.30;3.58;;;;;;;;;;4979622;28;20029;-88
2024/03/03 12:05:08;;;;;;;11.82;4.65;;;;;;;;;;4939627;28;1365692;-87
2024/03/03 12:07:34;;;;;;;11.45;4.78;;;;;;;;;;5007627;28;20581;-88
2024/03/03 12:10:00;;;;;;;19.00;12.48;;;;;;;;;;4987900;28;20037;-88
2024/03/03 12:12:26;;;;;;;;;;;;;;;;;;4974866;28;20563;-88
2024/03/03 12:14:53;;;;;;;10.23;3.13;;;;;;;;;;4988770;28;19916;-89
2024/03/03 12:17:19;;;;;;;10.02;3.03;;;;;;;;;;4985920;28;20038;-87
2024/03/03 12:19:46;;;;;;;11.80;3.42;;;;;;;;;;4975395;28;20656;-89
2024/03/03 12:22:13;;;;;;;26.50;22.00;;;;;;;;;;4972517;28;20888;-90
2024/03/03 12:24:40;;;;;;;14.57;7.15;;;;;;;;;;4970227;28;20025;-88
2024/03/03 12:27:07;;;;;;;13.13;4.45;;;;;;;;;;4992202;28;20038;-89
2024/03/03 12:29:36;;;;;;;19.17;12.27;;;;;;;;;;4998301;28;20025;-88
2024/03/03 12:32:04;;;;;;;15.27;7.05;;;;;;;;;;4977699;28;20188;-88
2024/03/03 12:34:30;;;;;;;9.82;4.32;;;;;;;;;;4977763;28;20034;-89
2024/03/03 12:36:57;;;;;;;9.32;2.90;;;;;;;;;;4977173;28;20049;-88
2024/03/03 12:39:23;;;;;;;28.42;21.27;;;;;;;;;;4967743;28;21386;-89
2024/03/03 12:41:49;;;;;;;12.15;4.75;;;;;;;;;;4969626;28;20066;-88
2024/03/03 12:44:15;;;;;;;;;;;;;;;;;;4967478;28;20416;-87
2024/03/03 12:46:42;;;;;;;16.48;9.43;;;;;;;;;;4973399;28;19909;-87
2024/03/03 12:49:09;;;;;;;17.17;11.75;;;;;;;;;;4978738;28;20467;-89
2024/03/03 12:51:35;;;;;;;11.32;5.03;;;;;;;;;;4980401;28;21000;-92
2024/03/03 12:54:01;;;;;;;21.30;14.05;;;;;;;;;;4980918;28;20045;-83
2024/03/03 12:56:27;;;;;;;11.15;3.88;;;;;;;;;;4979250;28;20030;-88
2024/03/03 12:58:53;;;;;;;;;;;;;;;;;;4969821;28;20053;-89
2024/03/03 13:01:20;;;;;;;12.95;6.53;;;;;;;;;;4978501;28;20008;-88
2024/03/03 13:03:51;;;;;;;76.93;66.80;;;;;;;;;;4975349;28;20026;-89
2024/03/03 13:06:21;;;;;;;11.32;4.60;;;;;;;;;;4981999;28;20059;-90
2024/03/03 13:08:48;;;;;;;14.55;8.48;;;;;;;;;;4979856;28;20030;-88
2024/03/03 13:11:14;;;;;;;8.50;2.83;;;;;;;;;;4970305;28;20102;-89
2024/03/03 13:13:40;;;;;;;16.65;11.20;;;;;;;;;;4988185;28;20608;-89
2024/03/03 13:16:08;;;;;;;;;;;;;;;;;;4975278;28;20038;-88
2024/03/03 13:18:34;;;;;;;32.40;29.02;;;;;;;;;;4975426;28;20867;-91
2024/03/03 13:21:16;;;;;;;10.43;3.72;;;;;;;;;;4965134;28;20041;-89
2024/03/03 13:23:43;;;;;;;15.13;10.73;;;;;;;;;;4944457;28;20592;-88
2024/03/03 13:26:09;;;;;;;9.50;3.92;;;;;;;;;;4965670;28;20084;-87
2024/03/03 13:28:36;;;;;;;15.02;7.80;;;;;;;;;;4993142;28;20033;-89
2024/03/03 13:31:03;;;;;;;7.40;1.50;;;;;;;;;;4970290;28;20616;-88
2024/03/03 13:33:33;;;;;;;6.72;1.88;;;;;;;;;;4972312;28;20164;-88
2024/03/03 13:36:03;;;;;;;9.15;3.38;;;;;;;;;;4955118;28;20044;-87
2024/03/03 13:38:29;;;;;;;8.48;1.73;;;;;;;;;;4970347;28;20607;-86
2024/03/03 13:40:55;;;;;;;10.27;3.25;;;;;;;;;;4960882;28;20562;-85
2024/03/03 13:43:21;;;;;;;8.32;1.90;;;;;;;;;;4985257;28;20033;-86
2024/03/03 13:45:48;;;;;;;7.88;2.38;;;;;;;;;;4963363;28;20041;-86
2024/03/03 13:48:17;;;;;;;12.05;3.47;;;;;;;;;;4986582;28;20037;-88
2024/03/03 13:50:43;;;;;;;6.72;1.60;;;;;;;;;;4945006;28;20029;-87
2024/03/03 13:53:10;;;;;;;9.70;2.25;;;;;;;;;;4952896;28;20054;-86
2024/03/03 13:55:36;;;;;;;10.35;2.70;;;;;;;;;;4963335;28;20021;-86
2024/03/03 13:58:03;;;;;;;8.52;2.58;;;;;;;;;;4969151;28;20068;-88
2024/03/03 14:00:29;;;;;;;5.20;1.40;;;;;;;;;;4952533;28;20026;-86
2024/03/03 14:02:56;;;;;;;7.80;2.00;;;;;;;;;;4946764;28;20116;-87
2024/03/03 14:05:22;;;;;;;6.95;1.25;;;;;;;;;;4940878;28;20042;-85
2024/03/03 14:07:48;;;;;;;8.38;3.25;;;;;;;;;;4925505;28;21268;-86
2024/03/03 14:10:14;;;;;;;10.00;2.58;;;;;;;;;;4936686;28;20040;-88
2024/03/03 14:12:40;;;;;;;8.02;2.10;;;;;;;;;;4927715;28;20108;-86
2024/03/03 14:15:07;;;;;;;8.05;2.30;;;;;;;;;;4955254;28;20042;-87
2024/03/03 14:17:33;;;;;;;8.18;2.35;;;;;;;;;;4990442;28;20030;-87
2024/03/03 14:19:59;;;;;;;9.80;3.20;;;;;;;;;;4970291;28;20043;-86
2024/03/03 14:22:26;;;;;;;47.55;40.38;;;;;;;;;;4982434;28;20029;-86
2024/03/03 14:24:52;;;;;;;12.07;4.90;;;;;;;;;;4948990;28;20135;-87
2024/03/03 14:27:18;;;;;;;15.00;6.60;;;;;;;;;;4974867;28;20112;-86
2024/03/03 14:29:45;;;;;;;21.73;12.77;;;;;;;;;;4933505;28;21932;-86
2024/03/03 14:32:11;;;;;;;10.70;4.15;;;;;;;;;;4965194;28;20036;-86
2024/03/03 14:34:37;;;;;;;10.25;4.03;;;;;;;;;;4970343;28;20041;-86
2024/03/03 14:37:03;;;;;;;9.50;3.03;;;;;;;;;;4938466;28;20714;-86
2024/03/03 14:39:30;;;;;;;9.30;2.13;;;;;;;;;;4940333;28;20030;-87